sensor_id;sensor_type;location;lat;lon;timestamp;pressure;altitude;pressure_sealevel;temperature;humidity
76590;BME280;65471;55.908;37.880;2023-05-18T00:02:19;100326.56;;;11.55;71.42
76590;BME280;65471;55.908;37.880;2023-05-18T00:04:47;100328.88;;;11.51;71.40
76590;BME280;65471;55.908;37.880;2023-05-18T00:07:14;100328.28;;;11.49;71.15
76590;BME280;65471;55.908;37.880;2023-05-18T00:09:41;100336.00;;;11.46;71.42
76590;BME280;65471;55.908;37.880;2023-05-18T00:12:08;100325.41;;;11.44;71.26
76590;BME280;65471;55.908;37.880;2023-05-18T00:14:38;100328.78;;;11.39;71.60
76590;BME280;65471;55.908;37.880;2023-05-18T00:17:05;100329.22;;;11.36;71.37
76590;BME280;65471;55.908;37.880;2023-05-18T00:19:32;100331.94;;;11.36;71.80
76590;BME280;65471;55.908;37.880;2023-05-18T00:21:58;100335.91;;;11.34;71.95
76590;BME280;65471;55.908;37.880;2023-05-18T00:24:27;100325.53;;;11.31;72.21
76590;BME280;65471;55.908;37.880;2023-05-18T00:26:54;100342.00;;;11.29;72.30
76590;BME280;65471;55.908;37.880;2023-05-18T00:29:22;100339.31;;;11.29;72.40
76590;BME280;65471;55.908;37.880;2023-05-18T00:31:48;100339.75;;;11.26;72.25
76590;BME280;65471;55.908;37.880;2023-05-18T00:34:19;100341.03;;;11.23;72.45
76590;BME280;65471;55.908;37.880;2023-05-18T00:36:46;100334.16;;;11.21;72.21
76590;BME280;65471;55.908;37.880;2023-05-18T00:39:13;100341.47;;;11.20;72.42
76590;BME280;65471;55.908;37.880;2023-05-18T00:41:40;100338.38;;;11.17;72.59
76590;BME280;65471;55.908;37.880;2023-05-18T00:44:07;100338.59;;;11.15;72.32
76590;BME280;65471;55.908;37.880;2023-05-18T00:46:34;100339.84;;;11.13;72.93
76590;BME280;65471;55.908;37.880;2023-05-18T00:49:01;100340.28;;;11.10;72.88
76590;BME280;65471;55.908;37.880;2023-05-18T00:51:30;100338.63;;;11.09;72.69
76590;BME280;65471;55.908;37.880;2023-05-18T00:53:58;100336.38;;;11.05;72.92
76590;BME280;65471;55.908;37.880;2023-05-18T00:56:27;100334.56;;;10.99;73.08
76590;BME280;65471;55.908;37.880;2023-05-18T00:58:55;100336.00;;;11.02;72.98
76590;BME280;65471;55.908;37.880;2023-05-18T01:01:28;100335.16;;;11.01;73.27
76590;BME280;65471;55.908;37.880;2023-05-18T01:03:59;100325.81;;;10.97;73.14
76590;BME280;65471;55.908;37.880;2023-05-18T01:06:31;100335.44;;;10.93;73.21
76590;BME280;65471;55.908;37.880;2023-05-18T01:09:04;100334.00;;;10.91;73.40
76590;BME280;65471;55.908;37.880;2023-05-18T01:11:43;100327.97;;;10.88;73.59
76590;BME280;65471;55.908;37.880;2023-05-18T01:14:26;100329.91;;;10.81;73.53
76590;BME280;65471;55.908;37.880;2023-05-18T01:19:59;100332.22;;;10.78;73.48
76590;BME280;65471;55.908;37.880;2023-05-18T01:27:53;100333.09;;;10.71;74.00
76590;BME280;65471;55.908;37.880;2023-05-18T01:30:21;100335.59;;;10.73;73.73
76590;BME280;65471;55.908;37.880;2023-05-18T01:32:49;100328.75;;;10.70;74.23
76590;BME280;65471;55.908;37.880;2023-05-18T01:35:16;100321.44;;;10.71;74.40
76590;BME280;65471;55.908;37.880;2023-05-18T01:37:43;100326.03;;;10.70;74.10
76590;BME280;65471;55.908;37.880;2023-05-18T01:40:10;100331.47;;;10.70;74.47
76590;BME280;65471;55.908;37.880;2023-05-18T01:42:43;100329.56;;;10.71;74.47
76590;BME280;65471;55.908;37.880;2023-05-18T01:45:20;100324.38;;;10.69;74.42
76590;BME280;65471;55.908;37.880;2023-05-18T01:47:48;100327.09;;;10.69;74.67
76590;BME280;65471;55.908;37.880;2023-05-18T01:50:28;100334.59;;;10.67;74.09
76590;BME280;65471;55.908;37.880;2023-05-18T01:53:01;100330.22;;;10.66;74.46
76590;BME280;65471;55.908;37.880;2023-05-18T01:55:30;100339.38;;;10.65;74.85
76590;BME280;65471;55.908;37.880;2023-05-18T01:57:58;100341.97;;;10.53;74.94
76590;BME280;65471;55.908;37.880;2023-05-18T02:00:26;100345.91;;;10.58;74.69
76590;BME280;65471;55.908;37.880;2023-05-18T02:02:53;100340.50;;;10.58;74.66
76590;BME280;65471;55.908;37.880;2023-05-18T02:05:20;100342.97;;;10.59;74.77
76590;BME280;65471;55.908;37.880;2023-05-18T02:07:47;100341.09;;;10.60;75.14
76590;BME280;65471;55.908;37.880;2023-05-18T02:10:14;100335.47;;;10.61;74.96
76590;BME280;65471;55.908;37.880;2023-05-18T02:12:41;100341.72;;;10.62;75.03
76590;BME280;65471;55.908;37.880;2023-05-18T02:15:09;100329.81;;;10.63;75.27
76590;BME280;65471;55.908;37.880;2023-05-18T02:17:36;100345.00;;;10.64;75.08
76590;BME280;65471;55.908;37.880;2023-05-18T02:20:23;100344.19;;;10.63;75.08
76590;BME280;65471;55.908;37.880;2023-05-18T02:22:53;100343.13;;;10.64;75.25
76590;BME280;65471;55.908;37.880;2023-05-18T02:25:20;100342.31;;;10.64;75.57
76590;BME280;65471;55.908;37.880;2023-05-18T02:27:47;100342.09;;;10.65;75.44
76590;BME280;65471;55.908;37.880;2023-05-18T02:30:16;100350.59;;;10.69;75.18
76590;BME280;65471;55.908;37.880;2023-05-18T02:32:44;100342.91;;;10.66;75.07
76590;BME280;65471;55.908;37.880;2023-05-18T02:35:15;100338.13;;;10.68;75.13
76590;BME280;65471;55.908;37.880;2023-05-18T02:37:44;100353.31;;;10.69;75.57
76590;BME280;65471;55.908;37.880;2023-05-18T02:40:12;100342.28;;;10.70;75.45
76590;BME280;65471;55.908;37.880;2023-05-18T02:42:42;100335.59;;;10.73;75.42
76590;BME280;65471;55.908;37.880;2023-05-18T02:45:09;100346.56;;;10.78;75.35
76590;BME280;65471;55.908;37.880;2023-05-18T02:47:36;100351.75;;;10.80;75.29
76590;BME280;65471;55.908;37.880;2023-05-18T02:50:03;100342.16;;;10.84;75.60
76590;BME280;65471;55.908;37.880;2023-05-18T02:52:34;100347.97;;;10.87;75.29
76590;BME280;65471;55.908;37.880;2023-05-18T02:55:02;100349.41;;;10.90;75.71
76590;BME280;65471;55.908;37.880;2023-05-18T02:57:30;100344.97;;;10.96;75.29
76590;BME280;65471;55.908;37.880;2023-05-18T02:59:58;100347.47;;;10.97;75.15
76590;BME280;65471;55.908;37.880;2023-05-18T03:02:25;100340.34;;;11.03;75.46
76590;BME280;65471;55.908;37.880;2023-05-18T03:04:53;100345.34;;;11.06;75.52
76590;BME280;65471;55.908;37.880;2023-05-18T03:07:23;100337.81;;;11.08;75.36
76590;BME280;65471;55.908;37.880;2023-05-18T03:09:50;100340.47;;;11.15;75.58
76590;BME280;65471;55.908;37.880;2023-05-18T03:12:17;100355.81;;;11.21;75.39
76590;BME280;65471;55.908;37.880;2023-05-18T03:14:43;100354.31;;;11.25;75.60
76590;BME280;65471;55.908;37.880;2023-05-18T03:17:10;100356.13;;;11.31;75.41
76590;BME280;65471;55.908;37.880;2023-05-18T03:19:37;100357.34;;;11.35;75.87
76590;BME280;65471;55.908;37.880;2023-05-18T03:22:04;100357.53;;;11.40;75.46
76590;BME280;65471;55.908;37.880;2023-05-18T03:24:31;100351.22;;;11.47;75.75
76590;BME280;65471;55.908;37.880;2023-05-18T03:27:06;100354.91;;;11.52;75.35
76590;BME280;65471;55.908;37.880;2023-05-18T03:29:33;100356.72;;;11.58;75.31
76590;BME280;65471;55.908;37.880;2023-05-18T03:32:00;100354.97;;;11.64;75.40
76590;BME280;65471;55.908;37.880;2023-05-18T03:34:27;100354.69;;;11.72;75.29
76590;BME280;65471;55.908;37.880;2023-05-18T03:36:54;100350.88;;;11.80;75.28
76590;BME280;65471;55.908;37.880;2023-05-18T03:39:21;100359.75;;;11.87;75.37
76590;BME280;65471;55.908;37.880;2023-05-18T03:41:48;100362.41;;;11.94;75.43
76590;BME280;65471;55.908;37.880;2023-05-18T03:44:15;100356.09;;;12.00;75.18
76590;BME280;65471;55.908;37.880;2023-05-18T03:46:42;100363.94;;;12.08;75.41
76590;BME280;65471;55.908;37.880;2023-05-18T03:49:09;100360.28;;;12.15;75.38
76590;BME280;65471;55.908;37.880;2023-05-18T03:51:36;100370.84;;;12.23;75.32
76590;BME280;65471;55.908;37.880;2023-05-18T03:54:03;100357.78;;;12.32;74.94
76590;BME280;65471;55.908;37.880;2023-05-18T03:56:30;100364.31;;;12.42;75.26
76590;BME280;65471;55.908;37.880;2023-05-18T03:58:57;100364.59;;;12.53;75.23
76590;BME280;65471;55.908;37.880;2023-05-18T04:01:24;100366.97;;;12.61;75.03
76590;BME280;65471;55.908;37.880;2023-05-18T04:03:51;100364.91;;;12.75;74.89
76590;BME280;65471;55.908;37.880;2023-05-18T04:06:22;100370.34;;;12.87;75.09
76590;BME280;65471;55.908;37.880;2023-05-18T04:08:49;100359.31;;;13.00;75.09
76590;BME280;65471;55.908;37.880;2023-05-18T04:11:16;100369.13;;;13.13;74.78
76590;BME280;65471;55.908;37.880;2023-05-18T04:13:43;100365.81;;;13.23;74.80
76590;BME280;65471;55.908;37.880;2023-05-18T04:16:10;100363.75;;;13.37;74.59
76590;BME280;65471;55.908;37.880;2023-05-18T04:18:40;100367.50;;;13.48;74.68
76590;BME280;65471;55.908;37.880;2023-05-18T04:21:07;100355.81;;;13.59;74.37
76590;BME280;65471;55.908;37.880;2023-05-18T04:23:35;100368.94;;;13.74;74.38
76590;BME280;65471;55.908;37.880;2023-05-18T04:26:05;100357.56;;;13.89;74.04
76590;BME280;65471;55.908;37.880;2023-05-18T04:28:32;100366.75;;;14.00;74.19
76590;BME280;65471;55.908;37.880;2023-05-18T04:30:59;100369.44;;;14.11;74.14
76590;BME280;65471;55.908;37.880;2023-05-18T04:33:28;100367.53;;;14.24;73.76
76590;BME280;65471;55.908;37.880;2023-05-18T04:35:55;100363.44;;;14.38;73.55
76590;BME280;65471;55.908;37.880;2023-05-18T04:38:25;100369.66;;;14.50;73.60
76590;BME280;65471;55.908;37.880;2023-05-18T04:40:52;100357.91;;;14.62;73.48
76590;BME280;65471;55.908;37.880;2023-05-18T04:43:19;100362.22;;;14.75;73.31
76590;BME280;65471;55.908;37.880;2023-05-18T04:45:46;100356.75;;;14.87;73.28
76590;BME280;65471;55.908;37.880;2023-05-18T04:48:17;100358.63;;;15.03;72.97
76590;BME280;65471;55.908;37.880;2023-05-18T04:50:45;100352.88;;;15.16;72.52
76590;BME280;65471;55.908;37.880;2023-05-18T04:53:12;100352.78;;;15.28;72.50
76590;BME280;65471;55.908;37.880;2023-05-18T04:55:39;100354.91;;;15.43;72.45
76590;BME280;65471;55.908;37.880;2023-05-18T04:58:08;100358.22;;;15.45;72.27
76590;BME280;65471;55.908;37.880;2023-05-18T05:00:36;100351.34;;;15.60;72.28
76590;BME280;65471;55.908;37.880;2023-05-18T05:03:03;100340.66;;;15.75;71.65
76590;BME280;65471;55.908;37.880;2023-05-18T05:05:31;100345.50;;;15.90;71.05
76590;BME280;65471;55.908;37.880;2023-05-18T05:07:58;100349.91;;;16.13;69.43
76590;BME280;65471;55.908;37.880;2023-05-18T05:10:25;100344.72;;;16.39;69.15
76590;BME280;65471;55.908;37.880;2023-05-18T05:12:53;100348.44;;;16.55;68.70
76590;BME280;65471;55.908;37.880;2023-05-18T05:15:20;100352.13;;;16.71;67.67
76590;BME280;65471;55.908;37.880;2023-05-18T05:17:48;100344.47;;;16.95;65.47
76590;BME280;65471;55.908;37.880;2023-05-18T05:20:16;100343.34;;;17.29;62.31
76590;BME280;65471;55.908;37.880;2023-05-18T05:22:43;100357.22;;;17.54;61.51
76590;BME280;65471;55.908;37.880;2023-05-18T05:25:10;100345.81;;;17.73;61.41
76590;BME280;65471;55.908;37.880;2023-05-18T05:27:37;100353.00;;;17.89;61.53
76590;BME280;65471;55.908;37.880;2023-05-18T05:30:04;100349.84;;;18.03;61.02
76590;BME280;65471;55.908;37.880;2023-05-18T05:32:32;100347.13;;;18.13;60.21
76590;BME280;65471;55.908;37.880;2023-05-18T05:34:59;100348.28;;;18.27;59.70
76590;BME280;65471;55.908;37.880;2023-05-18T05:37:26;100348.31;;;18.43;58.81
76590;BME280;65471;55.908;37.880;2023-05-18T05:39:53;100348.63;;;18.62;55.55
76590;BME280;65471;55.908;37.880;2023-05-18T05:42:20;100346.19;;;18.86;53.35
76590;BME280;65471;55.908;37.880;2023-05-18T05:44:47;100345.97;;;19.08;53.20
76590;BME280;65471;55.908;37.880;2023-05-18T05:47:14;100341.28;;;19.24;52.73
76590;BME280;65471;55.908;37.880;2023-05-18T05:49:41;100347.28;;;19.37;52.53
76590;BME280;65471;55.908;37.880;2023-05-18T05:52:08;100337.69;;;19.44;51.56
76590;BME280;65471;55.908;37.880;2023-05-18T05:54:35;100342.88;;;19.56;52.09
76590;BME280;65471;55.908;37.880;2023-05-18T05:57:02;100339.28;;;19.61;53.10
76590;BME280;65471;55.908;37.880;2023-05-18T05:59:29;100339.00;;;19.73;50.44
76590;BME280;65471;55.908;37.880;2023-05-18T06:01:56;100335.66;;;19.86;49.96
76590;BME280;65471;55.908;37.880;2023-05-18T06:04:23;100330.97;;;19.92;50.45
76590;BME280;65471;55.908;37.880;2023-05-18T06:06:50;100335.09;;;19.99;49.88
76590;BME280;65471;55.908;37.880;2023-05-18T06:09:17;100333.09;;;20.15;48.70
76590;BME280;65471;55.908;37.880;2023-05-18T06:11:44;100340.97;;;20.32;46.65
76590;BME280;65471;55.908;37.880;2023-05-18T06:14:11;100322.19;;;20.50;45.02
76590;BME280;65471;55.908;37.880;2023-05-18T06:16:38;100326.72;;;20.65;45.62
76590;BME280;65471;55.908;37.880;2023-05-18T06:19:06;100323.97;;;20.75;45.51
76590;BME280;65471;55.908;37.880;2023-05-18T06:21:33;100319.75;;;20.88;44.40
76590;BME280;65471;55.908;37.880;2023-05-18T06:23:59;100323.19;;;20.99;45.14
76590;BME280;65471;55.908;37.880;2023-05-18T06:26:27;100315.72;;;21.04;44.01
76590;BME280;65471;55.908;37.880;2023-05-18T06:28:54;100326.38;;;21.16;44.43
76590;BME280;65471;55.908;37.880;2023-05-18T06:31:21;100321.56;;;21.27;42.79
76590;BME280;65471;55.908;37.880;2023-05-18T06:33:48;100328.50;;;21.49;41.95
76590;BME280;65471;55.908;37.880;2023-05-18T06:36:16;100322.06;;;21.64;42.05
76590;BME280;65471;55.908;37.880;2023-05-18T06:38:43;100325.03;;;21.67;44.08
76590;BME280;65471;55.908;37.880;2023-05-18T06:41:10;100321.69;;;21.70;40.94
76590;BME280;65471;55.908;37.880;2023-05-18T06:43:37;100330.91;;;21.85;39.61
76590;BME280;65471;55.908;37.880;2023-05-18T06:46:04;100345.06;;;21.97;40.32
76590;BME280;65471;55.908;37.880;2023-05-18T06:48:31;100332.88;;;22.03;40.07
76590;BME280;65471;55.908;37.880;2023-05-18T06:50:58;100324.78;;;22.12;40.16
76590;BME280;65471;55.908;37.880;2023-05-18T06:53:25;100329.34;;;22.22;39.20
76590;BME280;65471;55.908;37.880;2023-05-18T06:55:52;100323.22;;;22.25;38.99
76590;BME280;65471;55.908;37.880;2023-05-18T06:58:19;100320.91;;;22.32;39.48
76590;BME280;65471;55.908;37.880;2023-05-18T07:00:46;100319.44;;;22.40;38.42
76590;BME280;65471;55.908;37.880;2023-05-18T07:03:14;100327.06;;;22.48;38.19
76590;BME280;65471;55.908;37.880;2023-05-18T07:05:42;100332.81;;;22.52;38.28
76590;BME280;65471;55.908;37.880;2023-05-18T07:08:09;100331.38;;;22.54;38.11
76590;BME280;65471;55.908;37.880;2023-05-18T07:10:36;100332.72;;;22.57;38.04
76590;BME280;65471;55.908;37.880;2023-05-18T07:13:03;100326.03;;;22.63;38.67
76590;BME280;65471;55.908;37.880;2023-05-18T07:15:30;100325.63;;;22.70;38.31
76590;BME280;65471;55.908;37.880;2023-05-18T07:17:57;100327.69;;;22.78;37.77
76590;BME280;65471;55.908;37.880;2023-05-18T07:20:24;100320.41;;;22.87;36.47
76590;BME280;65471;55.908;37.880;2023-05-18T07:22:52;100318.28;;;22.98;35.32
76590;BME280;65471;55.908;37.880;2023-05-18T07:25:22;100318.63;;;23.10;35.00
76590;BME280;65471;55.908;37.880;2023-05-18T07:27:49;100318.25;;;23.17;35.82
76590;BME280;65471;55.908;37.880;2023-05-18T07:30:21;100316.94;;;23.29;36.02
76590;BME280;65471;55.908;37.880;2023-05-18T07:32:48;100325.94;;;23.34;34.92
76590;BME280;65471;55.908;37.880;2023-05-18T07:35:16;100321.69;;;23.42;34.83
76590;BME280;65471;55.908;37.880;2023-05-18T07:37:45;100314.53;;;23.55;34.66
76590;BME280;65471;55.908;37.880;2023-05-18T07:40:12;100333.56;;;23.70;35.15
76590;BME280;65471;55.908;37.880;2023-05-18T07:42:39;100322.09;;;23.63;34.82
76590;BME280;65471;55.908;37.880;2023-05-18T07:45:06;100328.19;;;23.32;33.41
76590;BME280;65471;55.908;37.880;2023-05-18T07:47:33;100326.34;;;23.27;33.43
76590;BME280;65471;55.908;37.880;2023-05-18T07:50:01;100325.94;;;23.34;33.80
76590;BME280;65471;55.908;37.880;2023-05-18T07:52:31;100329.03;;;23.47;34.99
76590;BME280;65471;55.908;37.880;2023-05-18T07:54:59;100326.69;;;23.54;33.22
76590;BME280;65471;55.908;37.880;2023-05-18T07:57:29;100327.38;;;23.46;32.31
76590;BME280;65471;55.908;37.880;2023-05-18T07:59:56;100321.69;;;23.42;32.86
76590;BME280;65471;55.908;37.880;2023-05-18T08:02:23;100322.91;;;23.50;34.22
76590;BME280;65471;55.908;37.880;2023-05-18T08:04:50;100318.63;;;23.57;33.33
76590;BME280;65471;55.908;37.880;2023-05-18T08:07:17;100315.56;;;23.73;33.85
76590;BME280;65471;55.908;37.880;2023-05-18T08:09:44;100313.94;;;23.86;33.97
76590;BME280;65471;55.908;37.880;2023-05-18T08:12:11;100317.81;;;23.85;34.23
76590;BME280;65471;55.908;37.880;2023-05-18T08:14:38;100312.91;;;23.95;32.88
76590;BME280;65471;55.908;37.880;2023-05-18T08:17:05;100319.25;;;24.10;32.86
76590;BME280;65471;55.908;37.880;2023-05-18T08:19:33;100324.25;;;24.22;32.64
76590;BME280;65471;55.908;37.880;2023-05-18T08:22:00;100327.69;;;24.41;31.53
76590;BME280;65471;55.908;37.880;2023-05-18T08:24:26;100320.25;;;24.51;31.01
76590;BME280;65471;55.908;37.880;2023-05-18T08:26:53;100322.16;;;24.41;31.47
76590;BME280;65471;55.908;37.880;2023-05-18T08:29:20;100317.78;;;24.26;31.80
76590;BME280;65471;55.908;37.880;2023-05-18T08:31:47;100308.31;;;24.41;32.76
76590;BME280;65471;55.908;37.880;2023-05-18T08:34:15;100313.06;;;24.63;32.33
76590;BME280;65471;55.908;37.880;2023-05-18T08:36:42;100301.31;;;24.80;32.15
76590;BME280;65471;55.908;37.880;2023-05-18T08:39:11;100310.00;;;24.88;32.21
76590;BME280;65471;55.908;37.880;2023-05-18T08:44:28;100305.59;;;24.64;32.63
76590;BME280;65471;55.908;37.880;2023-05-18T08:46:57;100308.63;;;24.76;32.38
76590;BME280;65471;55.908;37.880;2023-05-18T08:49:26;100310.69;;;24.71;32.77
76590;BME280;65471;55.908;37.880;2023-05-18T08:51:54;100306.59;;;24.91;31.56
76590;BME280;65471;55.908;37.880;2023-05-18T08:54:22;100308.34;;;25.09;31.01
76590;BME280;65471;55.908;37.880;2023-05-18T08:56:51;100305.13;;;25.39;30.66
76590;BME280;65471;55.908;37.880;2023-05-18T08:59:22;100298.66;;;25.52;30.45
76590;BME280;65471;55.908;37.880;2023-05-18T09:01:50;100300.00;;;25.63;30.19
76590;BME280;65471;55.908;37.880;2023-05-18T09:04:18;100300.56;;;25.83;31.00
76590;BME280;65471;55.908;37.880;2023-05-18T09:06:47;100296.88;;;26.05;31.47
76590;BME280;65471;55.908;37.880;2023-05-18T09:09:15;100289.53;;;26.18;30.79
76590;BME280;65471;55.908;37.880;2023-05-18T09:11:45;100289.53;;;26.18;29.35
76590;BME280;65471;55.908;37.880;2023-05-18T09:14:13;100297.72;;;26.14;29.37
76590;BME280;65471;55.908;37.880;2023-05-18T09:16:39;100291.84;;;26.16;29.16
76590;BME280;65471;55.908;37.880;2023-05-18T09:19:07;100289.53;;;26.09;29.31
76590;BME280;65471;55.908;37.880;2023-05-18T09:21:33;100283.19;;;26.09;29.49
76590;BME280;65471;55.908;37.880;2023-05-18T09:24:01;100287.84;;;25.99;28.78
76590;BME280;65471;55.908;37.880;2023-05-18T09:26:28;100288.69;;;25.91;29.16
76590;BME280;65471;55.908;37.880;2023-05-18T09:28:55;100283.94;;;25.83;28.82
76590;BME280;65471;55.908;37.880;2023-05-18T09:31:22;100284.88;;;25.70;29.63
76590;BME280;65471;55.908;37.880;2023-05-18T09:33:51;100274.25;;;25.63;29.83
76590;BME280;65471;55.908;37.880;2023-05-18T09:36:23;100283.22;;;25.60;30.41
76590;BME280;65471;55.908;37.880;2023-05-18T09:38:51;100286.38;;;25.36;31.39
76590;BME280;65471;55.908;37.880;2023-05-18T09:41:18;100286.53;;;25.08;31.24
76590;BME280;65471;55.908;37.880;2023-05-18T09:43:48;100284.16;;;24.92;31.70
76590;BME280;65471;55.908;37.880;2023-05-18T09:46:17;100277.44;;;24.85;30.54
76590;BME280;65471;55.908;37.880;2023-05-18T09:48:49;100276.81;;;24.88;30.97
76590;BME280;65471;55.908;37.880;2023-05-18T09:51:16;100271.59;;;24.86;31.66
76590;BME280;65471;55.908;37.880;2023-05-18T09:53:53;100265.38;;;24.80;32.05
76590;BME280;65471;55.908;37.880;2023-05-18T09:56:23;100269.25;;;24.79;32.42
76590;BME280;65471;55.908;37.880;2023-05-18T09:58:50;100268.81;;;24.86;31.19
76590;BME280;65471;55.908;37.880;2023-05-18T10:01:17;100258.50;;;25.01;31.95
76590;BME280;65471;55.908;37.880;2023-05-18T10:03:44;100259.41;;;25.19;30.74
76590;BME280;65471;55.908;37.880;2023-05-18T10:06:14;100261.19;;;25.55;29.87
76590;BME280;65471;55.908;37.880;2023-05-18T10:08:45;100269.28;;;25.82;28.93
76590;BME280;65471;55.908;37.880;2023-05-18T10:11:16;100262.28;;;25.94;30.44
76590;BME280;65471;55.908;37.880;2023-05-18T10:13:45;100258.03;;;25.88;31.74
76590;BME280;65471;55.908;37.880;2023-05-18T10:16:14;100260.97;;;25.82;30.76
76590;BME280;65471;55.908;37.880;2023-05-18T10:18:41;100252.47;;;25.88;29.77
76590;BME280;65471;55.908;37.880;2023-05-18T10:21:09;100253.66;;;25.95;27.75
76590;BME280;65471;55.908;37.880;2023-05-18T10:23:39;100262.16;;;26.08;28.80
76590;BME280;65471;55.908;37.880;2023-05-18T10:26:06;100253.69;;;26.13;29.10
76590;BME280;65471;55.908;37.880;2023-05-18T10:28:43;100246.03;;;26.27;27.98
76590;BME280;65471;55.908;37.880;2023-05-18T10:31:11;100244.06;;;26.28;28.76
76590;BME280;65471;55.908;37.880;2023-05-18T10:33:43;100242.94;;;26.29;28.50
76590;BME280;65471;55.908;37.880;2023-05-18T10:36:10;100241.13;;;26.42;28.33
76590;BME280;65471;55.908;37.880;2023-05-18T10:38:37;100254.81;;;26.56;26.74
76590;BME280;65471;55.908;37.880;2023-05-18T10:41:06;100244.84;;;26.63;27.34
76590;BME280;65471;55.908;37.880;2023-05-18T10:43:33;100241.63;;;26.70;27.22
76590;BME280;65471;55.908;37.880;2023-05-18T10:46:04;100239.47;;;26.67;27.61
76590;BME280;65471;55.908;37.880;2023-05-18T10:48:37;100238.50;;;26.63;27.83
76590;BME280;65471;55.908;37.880;2023-05-18T10:51:06;100241.78;;;26.47;28.85
76590;BME280;65471;55.908;37.880;2023-05-18T10:53:34;100239.66;;;26.18;28.35
76590;BME280;65471;55.908;37.880;2023-05-18T10:56:02;100237.72;;;26.10;28.89
76590;BME280;65471;55.908;37.880;2023-05-18T10:58:30;100230.72;;;26.12;29.15
76590;BME280;65471;55.908;37.880;2023-05-18T11:00:59;100222.88;;;26.14;29.53
76590;BME280;65471;55.908;37.880;2023-05-18T11:03:27;100221.84;;;25.93;28.67
76590;BME280;65471;55.908;37.880;2023-05-18T11:06:05;100231.41;;;25.60;28.74
76590;BME280;65471;55.908;37.880;2023-05-18T11:08:33;100227.09;;;25.37;30.01
76590;BME280;65471;55.908;37.880;2023-05-18T11:11:07;100217.84;;;25.41;30.27
76590;BME280;65471;55.908;37.880;2023-05-18T11:13:35;100221.78;;;25.58;30.02
76590;BME280;65471;55.908;37.880;2023-05-18T11:16:05;100224.78;;;25.88;29.16
76590;BME280;65471;55.908;37.880;2023-05-18T11:21:19;100216.69;;;26.17;29.27
76590;BME280;65471;55.908;37.880;2023-05-18T11:26:52;100220.06;;;25.97;29.79
76590;BME280;65471;55.908;37.880;2023-05-18T11:31:56;100212.25;;;26.43;28.64
76590;BME280;65471;55.908;37.880;2023-05-18T11:37:06;100209.78;;;26.76;28.60
76590;BME280;65471;55.908;37.880;2023-05-18T11:39:36;100210.31;;;26.17;30.45
76590;BME280;65471;55.908;37.880;2023-05-18T11:42:17;100205.72;;;25.77;30.92
76590;BME280;65471;55.908;37.880;2023-05-18T11:44:50;100203.53;;;27.35;30.46
76590;BME280;65471;55.908;37.880;2023-05-18T11:47:18;100194.81;;;28.72;27.53
76590;BME280;65471;55.908;37.880;2023-05-18T11:49:47;100190.19;;;30.73;24.96
76590;BME280;65471;55.908;37.880;2023-05-18T11:52:21;100185.34;;;32.24;23.95
76590;BME280;65471;55.908;37.880;2023-05-18T11:54:56;100187.84;;;32.29;22.99
76590;BME280;65471;55.908;37.880;2023-05-18T11:57:26;100186.53;;;31.01;24.62
76590;BME280;65471;55.908;37.880;2023-05-18T11:59:55;100181.47;;;29.89;26.20
76590;BME280;65471;55.908;37.880;2023-05-18T12:02:24;100187.53;;;29.05;26.79
76590;BME280;65471;55.908;37.880;2023-05-18T12:04:59;100176.03;;;28.48;26.84
76590;BME280;65471;55.908;37.880;2023-05-18T12:07:27;100179.38;;;28.08;26.84
76590;BME280;65471;55.908;37.880;2023-05-18T12:09:59;100179.63;;;27.94;28.06
76590;BME280;65471;55.908;37.880;2023-05-18T12:12:27;100175.34;;;27.76;27.04
76590;BME280;65471;55.908;37.880;2023-05-18T12:14:55;100174.84;;;27.52;27.78
76590;BME280;65471;55.908;37.880;2023-05-18T12:17:42;100177.31;;;27.15;27.48
76590;BME280;65471;55.908;37.880;2023-05-18T12:20:14;100177.81;;;26.70;28.13
76590;BME280;65471;55.908;37.880;2023-05-18T12:22:43;100178.19;;;26.33;29.90
76590;BME280;65471;55.908;37.880;2023-05-18T12:25:10;100185.72;;;26.15;29.40
76590;BME280;65471;55.908;37.880;2023-05-18T12:27:38;100181.47;;;26.09;28.46
76590;BME280;65471;55.908;37.880;2023-05-18T12:30:10;100177.53;;;25.93;28.21
76590;BME280;65471;55.908;37.880;2023-05-18T12:32:38;100179.00;;;25.73;28.32
76590;BME280;65471;55.908;37.880;2023-05-18T12:35:06;100179.13;;;25.59;28.96
76590;BME280;65471;55.908;37.880;2023-05-18T12:37:43;100172.72;;;25.49;29.38
76590;BME280;65471;55.908;37.880;2023-05-18T12:40:16;100172.88;;;25.36;30.81
76590;BME280;65471;55.908;37.880;2023-05-18T12:42:51;100170.84;;;25.19;29.82
76590;BME280;65471;55.908;37.880;2023-05-18T12:45:22;100167.53;;;25.08;30.10
76590;BME280;65471;55.908;37.880;2023-05-18T12:47:49;100174.47;;;24.88;30.26
76590;BME280;65471;55.908;37.880;2023-05-18T12:50:23;100175.38;;;24.74;30.33
76590;BME280;65471;55.908;37.880;2023-05-18T12:52:54;100166.84;;;24.62;30.89
76590;BME280;65471;55.908;37.880;2023-05-18T12:55:24;100173.78;;;24.82;31.14
76590;BME280;65471;55.908;37.880;2023-05-18T13:00:36;100161.72;;;25.18;31.01
76590;BME280;65471;55.908;37.880;2023-05-18T13:03:09;100169.81;;;25.55;31.92
76590;BME280;65471;55.908;37.880;2023-05-18T13:05:44;100165.00;;;25.20;32.27
76590;BME280;65471;55.908;37.880;2023-05-18T13:08:18;100162.91;;;24.86;33.54
76590;BME280;65471;55.908;37.880;2023-05-18T13:10:48;100167.47;;;24.59;34.68
76590;BME280;65471;55.908;37.880;2023-05-18T13:13:34;100161.00;;;24.41;35.35